sensor_id;sensor_type;location;lat;lon;timestamp;P1;durP1;ratioP1;P2;durP2;ratioP2
22764;SDS011;11549;50.852;3.816;2023-12-20T00:00:50;17.15;;;3.75;;
22764;SDS011;11549;50.852;3.816;2023-12-20T00:03:20;14.40;;;2.97;;
22764;SDS011;11549;50.852;3.816;2023-12-20T00:05:48;16.92;;;3.45;;
22764;SDS011;11549;50.852;3.816;2023-12-20T00:08:16;12.10;;;3.03;;
22764;SDS011;11549;50.852;3.816;2023-12-20T00:10:44;14.70;;;3.35;;
22764;SDS011;11549;50.852;3.816;2023-12-20T00:13:13;14.18;;;3.42;;
22764;SDS011;11549;50.852;3.816;2023-12-20T00:15:41;15.30;;;3.80;;
22764;SDS011;11549;50.852;3.816;2023-12-20T00:18:10;12.35;;;3.42;;
22764;SDS011;11549;50.852;3.816;2023-12-20T00:20:40;14.57;;;3.85;;
22764;SDS011;11549;50.852;3.816;2023-12-20T00:23:08;17.17;;;3.83;;
22764;SDS011;11549;50.852;3.816;2023-12-20T00:25:36;21.60;;;4.38;;
22764;SDS011;11549;50.852;3.816;2023-12-20T00:28:04;14.80;;;3.95;;
22764;SDS011;11549;50.852;3.816;2023-12-20T00:30:33;19.42;;;4.60;;
22764;SDS011;11549;50.852;3.816;2023-12-20T00:33:03;19.25;;;4.55;;
22764;SDS011;11549;50.852;3.816;2023-12-20T00:35:31;17.15;;;4.05;;
22764;SDS011;11549;50.852;3.816;2023-12-20T00:38:01;17.85;;;4.15;;
22764;SDS011;11549;50.852;3.816;2023-12-20T00:40:31;16.67;;;4.28;;
22764;SDS011;11549;50.852;3.816;2023-12-20T00:43:00;16.70;;;3.75;;
22764;SDS011;11549;50.852;3.816;2023-12-20T00:45:28;14.55;;;4.25;;
22764;SDS011;11549;50.852;3.816;2023-12-20T00:47:57;13.05;;;3.80;;
22764;SDS011;11549;50.852;3.816;2023-12-20T00:50:26;19.40;;;4.18;;
22764;SDS011;11549;50.852;3.816;2023-12-20T00:52:56;17.42;;;4.20;;
22764;SDS011;11549;50.852;3.816;2023-12-20T00:55:26;23.13;;;4.65;;
22764;SDS011;11549;50.852;3.816;2023-12-20T00:57:54;17.85;;;4.57;;
22764;SDS011;11549;50.852;3.816;2023-12-20T01:00:22;20.45;;;4.57;;
22764;SDS011;11549;50.852;3.816;2023-12-20T01:02:51;19.80;;;5.53;;
22764;SDS011;11549;50.852;3.816;2023-12-20T01:05:18;20.92;;;5.00;;
22764;SDS011;11549;50.852;3.816;2023-12-20T01:07:49;16.33;;;4.50;;
22764;SDS011;11549;50.852;3.816;2023-12-20T01:10:18;13.88;;;4.47;;
22764;SDS011;11549;50.852;3.816;2023-12-20T01:12:47;17.15;;;4.53;;
22764;SDS011;11549;50.852;3.816;2023-12-20T01:15:16;23.27;;;4.65;;
22764;SDS011;11549;50.852;3.816;2023-12-20T01:17:44;18.90;;;4.80;;
22764;SDS011;11549;50.852;3.816;2023-12-20T01:20:13;17.42;;;4.72;;
22764;SDS011;11549;50.852;3.816;2023-12-20T01:22:42;19.27;;;4.90;;
22764;SDS011;11549;50.852;3.816;2023-12-20T01:25:12;19.98;;;5.15;;
22764;SDS011;11549;50.852;3.816;2023-12-20T01:27:41;18.90;;;5.38;;
22764;SDS011;11549;50.852;3.816;2023-12-20T01:30:14;20.65;;;5.25;;
22764;SDS011;11549;50.852;3.816;2023-12-20T01:32:42;23.27;;;5.55;;
22764;SDS011;11549;50.852;3.816;2023-12-20T01:35:11;17.85;;;4.97;;
22764;SDS011;11549;50.852;3.816;2023-12-20T01:37:40;22.02;;;5.20;;
22764;SDS011;11549;50.852;3.816;2023-12-20T01:40:09;18.88;;;5.30;;
22764;SDS011;11549;50.852;3.816;2023-12-20T01:42:38;17.52;;;5.00;;
22764;SDS011;11549;50.852;3.816;2023-12-20T01:45:06;19.73;;;5.00;;
22764;SDS011;11549;50.852;3.816;2023-12-20T01:47:37;22.67;;;5.32;;
22764;SDS011;11549;50.852;3.816;2023-12-20T01:50:06;16.42;;;5.22;;
22764;SDS011;11549;50.852;3.816;2023-12-20T01:52:35;17.42;;;4.45;;
22764;SDS011;11549;50.852;3.816;2023-12-20T01:55:05;15.68;;;4.75;;
22764;SDS011;11549;50.852;3.816;2023-12-20T01:57:40;18.13;;;4.65;;
22764;SDS011;11549;50.852;3.816;2023-12-20T02:00:10;17.20;;;4.90;;
22764;SDS011;11549;50.852;3.816;2023-12-20T02:02:42;14.20;;;4.70;;
22764;SDS011;11549;50.852;3.816;2023-12-20T02:05:12;20.58;;;5.05;;
22764;SDS011;11549;50.852;3.816;2023-12-20T02:07:41;18.52;;;5.10;;
22764;SDS011;11549;50.852;3.816;2023-12-20T02:10:10;23.38;;;4.70;;
22764;SDS011;11549;50.852;3.816;2023-12-20T02:12:39;16.73;;;4.88;;
22764;SDS011;11549;50.852;3.816;2023-12-20T02:15:08;20.48;;;5.07;;
22764;SDS011;11549;50.852;3.816;2023-12-20T02:17:37;20.23;;;5.75;;
22764;SDS011;11549;50.852;3.816;2023-12-20T02:20:09;22.15;;;4.90;;
22764;SDS011;11549;50.852;3.816;2023-12-20T02:22:39;20.65;;;4.95;;
22764;SDS011;11549;50.852;3.816;2023-12-20T02:25:08;24.50;;;4.93;;
22764;SDS011;11549;50.852;3.816;2023-12-20T02:27:36;18.90;;;4.88;;
22764;SDS011;11549;50.852;3.816;2023-12-20T02:30:06;16.50;;;4.90;;
22764;SDS011;11549;50.852;3.816;2023-12-20T02:32:35;24.80;;;5.03;;
22764;SDS011;11549;50.852;3.816;2023-12-20T02:35:04;17.50;;;4.90;;
22764;SDS011;11549;50.852;3.816;2023-12-20T02:37:33;18.70;;;4.32;;
22764;SDS011;11549;50.852;3.816;2023-12-20T02:40:03;20.05;;;4.15;;
22764;SDS011;11549;50.852;3.816;2023-12-20T02:42:32;19.75;;;4.72;;
22764;SDS011;11549;50.852;3.816;2023-12-20T02:45:00;21.65;;;4.53;;
22764;SDS011;11549;50.852;3.816;2023-12-20T02:47:29;17.05;;;4.43;;
22764;SDS011;11549;50.852;3.816;2023-12-20T02:49:57;19.38;;;4.28;;
22764;SDS011;11549;50.852;3.816;2023-12-20T02:52:27;19.50;;;4.15;;
22764;SDS011;11549;50.852;3.816;2023-12-20T02:54:56;16.38;;;3.95;;
22764;SDS011;11549;50.852;3.816;2023-12-20T02:57:27;23.55;;;4.85;;
22764;SDS011;11549;50.852;3.816;2023-12-20T02:59:56;18.13;;;4.50;;
22764;SDS011;11549;50.852;3.816;2023-12-20T03:02:24;13.88;;;4.22;;
22764;SDS011;11549;50.852;3.816;2023-12-20T03:04:52;17.45;;;4.47;;
22764;SDS011;11549;50.852;3.816;2023-12-20T03:07:21;16.60;;;3.90;;
22764;SDS011;11549;50.852;3.816;2023-12-20T03:09:50;16.15;;;4.47;;
22764;SDS011;11549;50.852;3.816;2023-12-20T03:12:38;18.65;;;4.05;;
22764;SDS011;11549;50.852;3.816;2023-12-20T03:15:08;19.88;;;4.43;;
22764;SDS011;11549;50.852;3.816;2023-12-20T03:17:36;17.27;;;4.20;;
22764;SDS011;11549;50.852;3.816;2023-12-20T03:20:05;17.98;;;4.47;;
22764;SDS011;11549;50.852;3.816;2023-12-20T03:22:35;19.83;;;4.80;;
22764;SDS011;11549;50.852;3.816;2023-12-20T03:25:04;17.13;;;4.35;;
22764;SDS011;11549;50.852;3.816;2023-12-20T03:27:32;16.60;;;4.32;;
22764;SDS011;11549;50.852;3.816;2023-12-20T03:30:02;15.68;;;4.55;;
22764;SDS011;11549;50.852;3.816;2023-12-20T03:32:32;17.45;;;4.32;;
22764;SDS011;11549;50.852;3.816;2023-12-20T03:35:00;18.65;;;4.40;;
22764;SDS011;11549;50.852;3.816;2023-12-20T03:37:29;17.63;;;4.13;;
22764;SDS011;11549;50.852;3.816;2023-12-20T03:39:57;19.60;;;4.53;;
22764;SDS011;11549;50.852;3.816;2023-12-20T03:42:26;15.82;;;4.38;;
22764;SDS011;11549;50.852;3.816;2023-12-20T03:44:55;17.90;;;4.25;;
22764;SDS011;11549;50.852;3.816;2023-12-20T03:47:24;18.55;;;4.30;;
22764;SDS011;11549;50.852;3.816;2023-12-20T03:49:53;22.15;;;4.63;;
22764;SDS011;11549;50.852;3.816;2023-12-20T03:52:21;15.35;;;4.55;;
22764;SDS011;11549;50.852;3.816;2023-12-20T03:54:50;19.25;;;4.50;;
22764;SDS011;11549;50.852;3.816;2023-12-20T03:57:18;15.00;;;4.47;;
22764;SDS011;11549;50.852;3.816;2023-12-20T03:59:47;15.95;;;4.60;;
22764;SDS011;11549;50.852;3.816;2023-12-20T04:02:15;15.45;;;4.35;;
22764;SDS011;11549;50.852;3.816;2023-12-20T04:04:45;19.38;;;4.38;;
22764;SDS011;11549;50.852;3.816;2023-12-20T04:07:14;19.10;;;4.60;;
22764;SDS011;11549;50.852;3.816;2023-12-20T04:09:42;13.82;;;4.15;;
22764;SDS011;11549;50.852;3.816;2023-12-20T04:12:11;15.95;;;4.53;;
22764;SDS011;11549;50.852;3.816;2023-12-20T04:14:39;18.23;;;4.40;;
22764;SDS011;11549;50.852;3.816;2023-12-20T04:17:07;15.05;;;4.35;;
22764;SDS011;11549;50.852;3.816;2023-12-20T04:19:36;24.02;;;5.53;;
22764;SDS011;11549;50.852;3.816;2023-12-20T04:22:06;16.27;;;4.60;;
22764;SDS011;11549;50.852;3.816;2023-12-20T04:24:34;23.65;;;5.72;;
22764;SDS011;11549;50.852;3.816;2023-12-20T04:27:03;21.60;;;4.32;;
22764;SDS011;11549;50.852;3.816;2023-12-20T04:29:31;18.67;;;4.20;;
22764;SDS011;11549;50.852;3.816;2023-12-20T04:32:00;15.20;;;4.38;;
22764;SDS011;11549;50.852;3.816;2023-12-20T04:34:28;23.75;;;4.75;;
22764;SDS011;11549;50.852;3.816;2023-12-20T04:36:57;20.23;;;4.60;;
22764;SDS011;11549;50.852;3.816;2023-12-20T04:39:27;17.88;;;4.30;;
22764;SDS011;11549;50.852;3.816;2023-12-20T04:41:55;17.45;;;4.10;;
22764;SDS011;11549;50.852;3.816;2023-12-20T04:44:23;20.25;;;4.43;;
22764;SDS011;11549;50.852;3.816;2023-12-20T04:46:53;17.73;;;4.20;;
22764;SDS011;11549;50.852;3.816;2023-12-20T04:49:22;20.90;;;4.32;;
22764;SDS011;11549;50.852;3.816;2023-12-20T04:51:52;21.52;;;3.97;;
22764;SDS011;11549;50.852;3.816;2023-12-20T04:54:21;19.80;;;4.32;;
22764;SDS011;11549;50.852;3.816;2023-12-20T04:56:50;17.02;;;3.92;;
22764;SDS011;11549;50.852;3.816;2023-12-20T04:59:19;19.90;;;4.32;;
22764;SDS011;11549;50.852;3.816;2023-12-20T05:01:47;18.02;;;3.25;;
22764;SDS011;11549;50.852;3.816;2023-12-20T05:04:16;19.20;;;3.45;;
22764;SDS011;11549;50.852;3.816;2023-12-20T05:06:44;19.60;;;3.97;;
22764;SDS011;11549;50.852;3.816;2023-12-20T05:09:13;21.95;;;3.85;;
22764;SDS011;11549;50.852;3.816;2023-12-20T05:11:41;22.40;;;3.90;;
22764;SDS011;11549;50.852;3.816;2023-12-20T05:14:11;16.45;;;3.30;;
22764;SDS011;11549;50.852;3.816;2023-12-20T05:16:39;20.50;;;3.47;;
22764;SDS011;11549;50.852;3.816;2023-12-20T05:19:08;19.95;;;4.10;;
22764;SDS011;11549;50.852;3.816;2023-12-20T05:21:36;20.67;;;3.33;;
22764;SDS011;11549;50.852;3.816;2023-12-20T05:24:05;12.45;;;3.03;;
22764;SDS011;11549;50.852;3.816;2023-12-20T05:26:33;19.80;;;3.65;;
22764;SDS011;11549;50.852;3.816;2023-12-20T05:29:02;19.23;;;4.00;;
22764;SDS011;11549;50.852;3.816;2023-12-20T05:31:31;15.73;;;3.20;;
22764;SDS011;11549;50.852;3.816;2023-12-20T05:34:00;17.30;;;3.35;;
22764;SDS011;11549;50.852;3.816;2023-12-20T05:36:28;14.75;;;3.35;;
22764;SDS011;11549;50.852;3.816;2023-12-20T05:38:57;17.27;;;3.47;;
22764;SDS011;11549;50.852;3.816;2023-12-20T05:41:25;18.50;;;3.28;;
22764;SDS011;11549;50.852;3.816;2023-12-20T05:43:54;20.38;;;3.53;;
22764;SDS011;11549;50.852;3.816;2023-12-20T05:46:24;14.93;;;3.42;;
22764;SDS011;11549;50.852;3.816;2023-12-20T05:48:54;23.55;;;4.43;;
22764;SDS011;11549;50.852;3.816;2023-12-20T05:51:22;24.27;;;3.70;;
22764;SDS011;11549;50.852;3.816;2023-12-20T05:53:50;17.98;;;3.33;;
22764;SDS011;11549;50.852;3.816;2023-12-20T05:56:19;14.55;;;3.58;;
22764;SDS011;11549;50.852;3.816;2023-12-20T05:58:47;20.38;;;3.58;;
22764;SDS011;11549;50.852;3.816;2023-12-20T06:01:15;20.27;;;3.45;;
22764;SDS011;11549;50.852;3.816;2023-12-20T06:03:44;16.95;;;3.45;;
22764;SDS011;11549;50.852;3.816;2023-12-20T06:06:14;22.13;;;3.17;;
22764;SDS011;11549;50.852;3.816;2023-12-20T06:08:44;17.73;;;3.83;;
22764;SDS011;11549;50.852;3.816;2023-12-20T06:11:12;17.85;;;3.60;;
22764;SDS011;11549;50.852;3.816;2023-12-20T06:13:41;19.75;;;3.92;;
22764;SDS011;11549;50.852;3.816;2023-12-20T06:16:09;18.80;;;4.22;;
22764;SDS011;11549;50.852;3.816;2023-12-20T06:18:37;15.65;;;4.82;;
22764;SDS011;11549;50.852;3.816;2023-12-20T06:21:06;19.83;;;3.90;;
22764;SDS011;11549;50.852;3.816;2023-12-20T06:23:36;16.65;;;3.50;;
22764;SDS011;11549;50.852;3.816;2023-12-20T06:26:04;18.48;;;3.55;;
22764;SDS011;11549;50.852;3.816;2023-12-20T06:28:33;19.30;;;3.85;;
22764;SDS011;11549;50.852;3.816;2023-12-20T06:31:03;23.50;;;3.70;;
22764;SDS011;11549;50.852;3.816;2023-12-20T06:33:32;20.85;;;3.63;;
22764;SDS011;11549;50.852;3.816;2023-12-20T06:36:00;16.38;;;3.13;;
22764;SDS011;11549;50.852;3.816;2023-12-20T06:38:29;19.17;;;3.50;;
22764;SDS011;11549;50.852;3.816;2023-12-20T06:40:59;14.20;;;3.20;;
22764;SDS011;11549;50.852;3.816;2023-12-20T06:43:27;16.92;;;3.13;;
22764;SDS011;11549;50.852;3.816;2023-12-20T06:46:14;15.68;;;3.30;;
22764;SDS011;11549;50.852;3.816;2023-12-20T06:48:44;20.85;;;3.10;;
22764;SDS011;11549;50.852;3.816;2023-12-20T06:51:14;19.73;;;3.67;;
22764;SDS011;11549;50.852;3.816;2023-12-20T06:53:43;23.92;;;3.83;;
22764;SDS011;11549;50.852;3.816;2023-12-20T06:56:13;18.90;;;3.55;;
22764;SDS011;11549;50.852;3.816;2023-12-20T06:58:45;17.92;;;3.10;;
22764;SDS011;11549;50.852;3.816;2023-12-20T07:01:14;22.08;;;3.83;;
22764;SDS011;11549;50.852;3.816;2023-12-20T07:03:43;20.08;;;3.67;;
22764;SDS011;11549;50.852;3.816;2023-12-20T07:06:11;23.10;;;3.70;;
22764;SDS011;11549;50.852;3.816;2023-12-20T07:08:42;16.50;;;2.92;;
22764;SDS011;11549;50.852;3.816;2023-12-20T07:11:10;16.77;;;3.10;;
22764;SDS011;11549;50.852;3.816;2023-12-20T07:13:40;19.50;;;3.25;;
22764;SDS011;11549;50.852;3.816;2023-12-20T07:16:09;18.60;;;3.28;;
22764;SDS011;11549;50.852;3.816;2023-12-20T07:18:37;17.35;;;2.70;;
22764;SDS011;11549;50.852;3.816;2023-12-20T07:21:05;14.27;;;3.13;;
22764;SDS011;11549;50.852;3.816;2023-12-20T07:23:34;19.30;;;2.88;;
22764;SDS011;11549;50.852;3.816;2023-12-20T07:26:03;20.70;;;3.88;;
22764;SDS011;11549;50.852;3.816;2023-12-20T07:28:31;17.65;;;3.75;;
22764;SDS011;11549;50.852;3.816;2023-12-20T07:31:01;17.67;;;3.45;;
22764;SDS011;11549;50.852;3.816;2023-12-20T07:33:30;16.88;;;3.42;;
22764;SDS011;11549;50.852;3.816;2023-12-20T07:36:05;18.25;;;3.92;;
22764;SDS011;11549;50.852;3.816;2023-12-20T07:38:34;20.83;;;3.78;;
22764;SDS011;11549;50.852;3.816;2023-12-20T07:41:03;17.92;;;3.90;;
22764;SDS011;11549;50.852;3.816;2023-12-20T07:43:31;20.35;;;3.33;;
22764;SDS011;11549;50.852;3.816;2023-12-20T07:46:05;15.23;;;4.00;;
22764;SDS011;11549;50.852;3.816;2023-12-20T07:48:34;15.23;;;3.30;;
22764;SDS011;11549;50.852;3.816;2023-12-20T07:51:03;22.35;;;4.03;;
22764;SDS011;11549;50.852;3.816;2023-12-20T07:53:32;16.98;;;3.28;;
22764;SDS011;11549;50.852;3.816;2023-12-20T07:56:01;17.27;;;3.35;;
22764;SDS011;11549;50.852;3.816;2023-12-20T07:58:30;13.90;;;3.65;;
22764;SDS011;11549;50.852;3.816;2023-12-20T08:01:18;15.45;;;3.40;;
22764;SDS011;11549;50.852;3.816;2023-12-20T08:03:48;18.35;;;3.50;;
22764;SDS011;11549;50.852;3.816;2023-12-20T08:06:18;15.63;;;3.05;;
22764;SDS011;11549;50.852;3.816;2023-12-20T08:08:47;20.52;;;3.55;;
22764;SDS011;11549;50.852;3.816;2023-12-20T08:11:27;20.48;;;4.72;;
22764;SDS011;11549;50.852;3.816;2023-12-20T08:13:56;17.00;;;4.25;;
22764;SDS011;11549;50.852;3.816;2023-12-20T08:16:26;16.88;;;3.42;;
22764;SDS011;11549;50.852;3.816;2023-12-20T08:18:55;15.00;;;3.08;;
22764;SDS011;11549;50.852;3.816;2023-12-20T08:21:23;19.63;;;3.72;;
22764;SDS011;11549;50.852;3.816;2023-12-20T08:23:51;18.23;;;3.65;;
22764;SDS011;11549;50.852;3.816;2023-12-20T08:26:20;16.90;;;3.88;;
22764;SDS011;11549;50.852;3.816;2023-12-20T08:28:50;13.02;;;2.55;;
22764;SDS011;11549;50.852;3.816;2023-12-20T08:31:19;14.45;;;3.03;;
22764;SDS011;11549;50.852;3.816;2023-12-20T08:33:50;15.25;;;2.65;;
22764;SDS011;11549;50.852;3.816;2023-12-20T08:36:21;11.63;;;2.85;;
22764;SDS011;11549;50.852;3.816;2023-12-20T08:38:50;16.58;;;3.17;;
22764;SDS011;11549;50.852;3.816;2023-12-20T08:41:18;13.07;;;2.72;;
22764;SDS011;11549;50.852;3.816;2023-12-20T08:43:47;11.05;;;2.67;;
22764;SDS011;11549;50.852;3.816;2023-12-20T08:46:16;11.13;;;2.47;;
22764;SDS011;11549;50.852;3.816;2023-12-20T08:48:45;16.42;;;3.17;;
22764;SDS011;11549;50.852;3.816;2023-12-20T08:51:15;13.77;;;2.90;;
22764;SDS011;11549;50.852;3.816;2023-12-20T08:53:43;11.20;;;2.50;;
22764;SDS011;11549;50.852;3.816;2023-12-20T08:56:14;11.57;;;2.70;;
22764;SDS011;11549;50.852;3.816;2023-12-20T08:58:44;16.38;;;3.00;;
22764;SDS011;11549;50.852;3.816;2023-12-20T09:01:13;15.18;;;3.15;;
22764;SDS011;11549;50.852;3.816;2023-12-20T09:03:42;14.52;;;2.78;;
22764;SDS011;11549;50.852;3.816;2023-12-20T09:06:11;11.63;;;2.88;;
22764;SDS011;11549;50.852;3.816;2023-12-20T09:08:41;13.77;;;3.08;;
22764;SDS011;11549;50.852;3.816;2023-12-20T09:11:10;10.00;;;2.60;;
22764;SDS011;11549;50.852;3.816;2023-12-20T09:13:39;13.85;;;3.22;;
22764;SDS011;11549;50.852;3.816;2023-12-20T09:16:08;15.13;;;2.90;;
22764;SDS011;11549;50.852;3.816;2023-12-20T09:18:36;15.88;;;3.17;;
22764;SDS011;11549;50.852;3.816;2023-12-20T09:21:05;15.00;;;3.30;;
22764;SDS011;11549;50.852;3.816;2023-12-20T09:23:33;15.32;;;2.80;;
22764;SDS011;11549;50.852;3.816;2023-12-20T09:26:04;18.63;;;2.90;;
22764;SDS011;11549;50.852;3.816;2023-12-20T09:28:32;15.60;;;4.00;;
22764;SDS011;11549;50.852;3.816;2023-12-20T09:31:05;11.90;;;2.67;;
22764;SDS011;11549;50.852;3.816;2023-12-20T09:33:34;13.20;;;3.13;;
22764;SDS011;11549;50.852;3.816;2023-12-20T09:36:03;19.08;;;3.03;;
22764;SDS011;11549;50.852;3.816;2023-12-20T09:38:33;16.13;;;2.92;;
22764;SDS011;11549;50.852;3.816;2023-12-20T09:41:01;18.95;;;3.63;;
22764;SDS011;11549;50.852;3.816;2023-12-20T09:43:32;15.40;;;3.28;;
22764;SDS011;11549;50.852;3.816;2023-12-20T09:46:06;21.35;;;3.05;;
22764;SDS011;11549;50.852;3.816;2023-12-20T09:48:35;18.83;;;3.08;;
22764;SDS011;11549;50.852;3.816;2023-12-20T09:51:05;15.32;;;3.10;;
22764;SDS011;11549;50.852;3.816;2023-12-20T09:53:33;15.18;;;3.10;;
22764;SDS011;11549;50.852;3.816;2023-12-20T09:56:04;17.45;;;3.50;;
22764;SDS011;11549;50.852;3.816;2023-12-20T09:58:37;13.60;;;3.10;;
22764;SDS011;11549;50.852;3.816;2023-12-20T10:01:06;13.35;;;2.88;;
22764;SDS011;11549;50.852;3.816;2023-12-20T10:03:36;16.58;;;3.85;;
22764;SDS011;11549;50.852;3.816;2023-12-20T10:06:07;12.30;;;3.25;;
22764;SDS011;11549;50.852;3.816;2023-12-20T10:08:36;13.60;;;3.20;;
22764;SDS011;11549;50.852;3.816;2023-12-20T10:11:04;18.83;;;3.55;;
22764;SDS011;11549;50.852;3.816;2023-12-20T10:13:33;14.70;;;3.33;;
22764;SDS011;11549;50.852;3.816;2023-12-20T10:16:03;19.13;;;3.55;;
22764;SDS011;11549;50.852;3.816;2023-12-20T10:18:34;14.93;;;3.08;;
22764;SDS011;11549;50.852;3.816;2023-12-20T10:21:05;16.38;;;3.83;;
22764;SDS011;11549;50.852;3.816;2023-12-20T10:23:34;15.85;;;3.55;;
22764;SDS011;11549;50.852;3.816;2023-12-20T10:26:02;12.18;;;3.15;;
22764;SDS011;11549;50.852;3.816;2023-12-20T10:28:33;19.08;;;3.88;;
22764;SDS011;11549;50.852;3.816;2023-12-20T10:31:03;16.05;;;3.28;;
22764;SDS011;11549;50.852;3.816;2023-12-20T10:33:32;17.40;;;3.20;;
22764;SDS011;11549;50.852;3.816;2023-12-20T10:36:01;14.40;;;2.88;;
22764;SDS011;11549;50.852;3.816;2023-12-20T10:38:30;16.02;;;3.70;;
22764;SDS011;11549;50.852;3.816;2023-12-20T10:40:58;18.90;;;3.42;;
22764;SDS011;11549;50.852;3.816;2023-12-20T10:43:28;13.32;;;3.13;;
22764;SDS011;11549;50.852;3.816;2023-12-20T10:46:00;16.30;;;3.40;;
22764;SDS011;11549;50.852;3.816;2023-12-20T10:48:32;17.02;;;3.40;;
22764;SDS011;11549;50.852;3.816;2023-12-20T10:51:02;16.90;;;3.00;;
22764;SDS011;11549;50.852;3.816;2023-12-20T10:53:32;12.45;;;2.90;;
22764;SDS011;11549;50.852;3.816;2023-12-20T10:56:04;17.13;;;3.60;;
22764;SDS011;11549;50.852;3.816;2023-12-20T10:58:35;19.90;;;3.55;;
22764;SDS011;11549;50.852;3.816;2023-12-20T11:01:09;18.70;;;3.28;;
22764;SDS011;11549;50.852;3.816;2023-12-20T11:03:43;19.88;;;3.83;;
22764;SDS011;11549;50.852;3.816;2023-12-20T11:08:47;14.52;;;3.60;;
22764;SDS011;11549;50.852;3.816;2023-12-20T11:11:21;12.13;;;2.90;;
22764;SDS011;11549;50.852;3.816;2023-12-20T11:13:57;13.20;;;3.58;;
22764;SDS011;11549;50.852;3.816;2023-12-20T11:16:30;16.52;;;3.20;;
22764;SDS011;11549;50.852;3.816;2023-12-20T11:19:13;15.00;;;3.47;;
22764;SDS011;11549;50.852;3.816;2023-12-20T11:21:42;13.38;;;3.50;;
22764;SDS011;11549;50.852;3.816;2023-12-20T11:24:10;18.73;;;3.50;;
22764;SDS011;11549;50.852;3.816;2023-12-20T11:26:39;20.50;;;3.53;;
22764;SDS011;11549;50.852;3.816;2023-12-20T11:29:31;16.77;;;3.30;;
22764;SDS011;11549;50.852;3.816;2023-12-20T11:32:03;14.43;;;2.80;;
22764;SDS011;11549;50.852;3.816;2023-12-20T11:34:53;14.23;;;3.25;;
22764;SDS011;11549;50.852;3.816;2023-12-20T11:37:25;20.50;;;3.50;;
22764;SDS011;11549;50.852;3.816;2023-12-20T11:40:00;16.33;;;3.35;;
22764;SDS011;11549;50.852;3.816;2023-12-20T11:45:01;14.57;;;3.20;;
22764;SDS011;11549;50.852;3.816;2023-12-20T11:47:32;16.83;;;3.53;;
22764;SDS011;11549;50.852;3.816;2023-12-20T11:50:01;18.67;;;3.63;;
22764;SDS011;11549;50.852;3.816;2023-12-20T11:52:31;13.07;;;3.08;;
22764;SDS011;11549;50.852;3.816;2023-12-20T11:55:00;16.95;;;3.38;;
22764;SDS011;11549;50.852;3.816;2023-12-20T11:57:28;15.10;;;3.00;;
22764;SDS011;11549;50.852;3.816;2023-12-20T11:59:56;12.00;;;2.55;;
22764;SDS011;11549;50.852;3.816;2023-12-20T12:02:25;13.80;;;2.90;;
22764;SDS011;11549;50.852;3.816;2023-12-20T12:04:55;12.07;;;2.80;;
22764;SDS011;11549;50.852;3.816;2023-12-20T12:07:25;12.20;;;2.72;;
22764;SDS011;11549;50.852;3.816;2023-12-20T12:09:53;13.25;;;2.67;;
22764;SDS011;11549;50.852;3.816;2023-12-20T12:12:22;15.93;;;3.20;;
22764;SDS011;11549;50.852;3.816;2023-12-20T12:14:51;15.15;;;3.50;;
22764;SDS011;11549;50.852;3.816;2023-12-20T12:17:20;15.43;;;2.97;;
22764;SDS011;11549;50.852;3.816;2023-12-20T12:19:48;15.50;;;3.15;;
22764;SDS011;11549;50.852;3.816;2023-12-20T12:22:18;14.35;;;2.80;;
22764;SDS011;11549;50.852;3.816;2023-12-20T12:24:52;17.83;;;3.17;;
22764;SDS011;11549;50.852;3.816;2023-12-20T12:27:20;19.92;;;4.05;;
22764;SDS011;11549;50.852;3.816;2023-12-20T12:30:00;17.90;;;3.30;;
22764;SDS011;11549;50.852;3.816;2023-12-20T12:32:30;16.02;;;2.90;;
22764;SDS011;11549;50.852;3.816;2023-12-20T12:34:59;14.82;;;3.47;;
22764;SDS011;11549;50.852;3.816;2023-12-20T12:37:29;18.50;;;3.35;;
22764;SDS011;11549;50.852;3.816;2023-12-20T12:39:58;18.33;;;3.20;;
22764;SDS011;11549;50.852;3.816;2023-12-20T12:42:26;17.17;;;3.00;;
22764;SDS011;11549;50.852;3.816;2023-12-20T12:44:55;13.82;;;3.00;;
22764;SDS011;11549;50.852;3.816;2023-12-20T12:47:23;17.10;;;3.85;;
22764;SDS011;11549;50.852;3.816;2023-12-20T12:49:52;13.05;;;3.05;;
22764;SDS011;11549;50.852;3.816;2023-12-20T12:52:21;19.15;;;3.38;;
22764;SDS011;11549;50.852;3.816;2023-12-20T12:54:51;14.63;;;3.22;;
22764;SDS011;11549;50.852;3.816;2023-12-20T12:57:19;17.73;;;2.88;;
22764;SDS011;11549;50.852;3.816;2023-12-20T12:59:48;15.25;;;3.00;;
22764;SDS011;11549;50.852;3.816;2023-12-20T13:02:16;18.23;;;3.38;;
22764;SDS011;11549;50.852;3.816;2023-12-20T13:04:45;17.90;;;3.13;;
22764;SDS011;11549;50.852;3.816;2023-12-20T13:07:13;14.15;;;2.92;;
22764;SDS011;11549;50.852;3.816;2023-12-20T13:09:43;12.38;;;3.03;;
22764;SDS011;11549;50.852;3.816;2023-12-20T13:12:12;9.70;;;3.35;;
22764;SDS011;11549;50.852;3.816;2023-12-20T13:14:41;14.82;;;3.03;;
22764;SDS011;11549;50.852;3.816;2023-12-20T13:17:10;15.38;;;2.80;;
22764;SDS011;11549;50.852;3.816;2023-12-20T13:19:38;16.55;;;3.10;;
22764;SDS011;11549;50.852;3.816;2023-12-20T13:22:06;19.95;;;3.75;;
22764;SDS011;11549;50.852;3.816;2023-12-20T13:24:36;15.68;;;3.30;;
22764;SDS011;11549;50.852;3.816;2023-12-20T13:27:04;14.45;;;3.25;;
22764;SDS011;11549;50.852;3.816;2023-12-20T13:29:34;13.00;;;3.45;;
22764;SDS011;11549;50.852;3.816;2023-12-20T13:32:06;12.27;;;3.07;;
22764;SDS011;11549;50.852;3.816;2023-12-20T13:34:34;17.90;;;3.00;;
22764;SDS011;11549;50.852;3.816;2023-12-20T13:37:03;16.95;;;3.67;;
22764;SDS011;11549;50.852;3.816;2023-12-20T13:39:33;16.50;;;3.38;;
22764;SDS011;11549;50.852;3.816;2023-12-20T13:42:01;16.05;;;3.50;;
22764;SDS011;11549;50.852;3.816;2023-12-20T13:44:30;16.42;;;3.05;;
22764;SDS011;11549;50.852;3.816;2023-12-20T13:47:01;17.45;;;3.28;;
22764;SDS011;11549;50.852;3.816;2023-12-20T13:49:30;19.55;;;3.03;;
22764;SDS011;11549;50.852;3.816;2023-12-20T13:51:59;14.18;;;3.00;;
22764;SDS011;11549;50.852;3.816;2023-12-20T13:54:30;12.20;;;2.75;;
22764;SDS011;11549;50.852;3.816;2023-12-20T13:56:59;16.35;;;2.90;;
22764;SDS011;11549;50.852;3.816;2023-12-20T13:59:42;15.07;;;2.95;;
22764;SDS011;11549;50.852;3.816;2023-12-20T14:02:13;18.27;;;2.85;;
22764;SDS011;11549;50.852;3.816;2023-12-20T14:04:42;12.73;;;2.40;;
22764;SDS011;11549;50.852;3.816;2023-12-20T14:07:11;13.98;;;2.67;;
22764;SDS011;11549;50.852;3.816;2023-12-20T14:09:40;13.88;;;2.38;;
22764;SDS011;11549;50.852;3.816;2023-12-20T14:12:13;13.97;;;2.80;;
22764;SDS011;11549;50.852;3.816;2023-12-20T14:14:41;15.88;;;2.55;;
22764;SDS011;11549;50.852;3.816;2023-12-20T14:17:13;14.27;;;2.65;;
22764;SDS011;11549;50.852;3.816;2023-12-20T14:19:42;10.38;;;2.10;;
22764;SDS011;11549;50.852;3.816;2023-12-20T14:22:10;12.70;;;2.40;;
22764;SDS011;11549;50.852;3.816;2023-12-20T14:24:43;18.00;;;3.13;;
22764;SDS011;11549;50.852;3.816;2023-12-20T14:27:13;12.80;;;2.80;;
22764;SDS011;11549;50.852;3.816;2023-12-20T14:29:41;12.82;;;2.38;;
22764;SDS011;11549;50.852;3.816;2023-12-20T14:32:13;17.80;;;2.47;;
22764;SDS011;11549;50.852;3.816;2023-12-20T14:34:42;14.52;;;3.15;;
22764;SDS011;11549;50.852;3.816;2023-12-20T14:37:11;14.45;;;3.00;;
22764;SDS011;11549;50.852;3.816;2023-12-20T14:39:39;16.35;;;3.05;;
22764;SDS011;11549;50.852;3.816;2023-12-20T14:42:08;14.32;;;2.85;;
22764;SDS011;11549;50.852;3.816;2023-12-20T14:44:39;9.70;;;2.67;;
22764;SDS011;11549;50.852;3.816;2023-12-20T14:47:08;10.40;;;2.70;;
22764;SDS011;11549;50.852;3.816;2023-12-20T14:49:38;11.45;;;2.60;;
22764;SDS011;11549;50.852;3.816;2023-12-20T14:52:06;14.43;;;2.60;;
22764;SDS011;11549;50.852;3.816;2023-12-20T14:54:38;17.15;;;3.08;;